• Join FlightAware (Why Join?)
  • Login
  • US Flag 
10:18PM EST


 

Airport Tracker/Info


-or-


 

Live Flight TrackerFlight Track Log ✈ SWA534 ✈ 02-Sep-2013 ✈ KOAK - KPDX

Flight Track Log - Related Links

Times and Time Zones

All times are in EDT time to prevent confusion due to time zone crossing. See the SWA534 flight status page for this flight to view local times or setup timezone preferences in your user account.

Time Position Orientation Groundspeed Altitude Reporting Facility
EDT Latitude Longitude Course Direction KTS MPH feet Rate Location/Type
06:53PM 37.8333 -122.3500 329° Northwest 291 335 4,000  Level Northern Cal TRACON
06:54PM 37.8833 -122.2833 46° Northeast 290 334 6,700 2,520 Climbing Northern Cal TRACON
06:56PM 37.9811 -122.2261 25° Northeast 298 343 10,200 2,520 Climbing Oakland Center
06:57PM 38.0897 -122.2250 360° North 335 386 13,000 2,100 Climbing Oakland Center
06:58PM 38.3500 -122.3708 357° North  Level FlightAware Approximate
06:58PM 38.1942 -122.2339 356° North 371 427 14,600  Level Oakland Center
06:59PM 38.3100 -122.2422 357° North 409 471 16,700 2,340 Climbing Oakland Center
07:00PM 38.4261 -122.2519 356° North 419 482 19,500 2,280 Climbing Oakland Center
07:01PM 38.5428 -122.2625 356° North 421 484 21,400 1,740 Climbing Oakland Center
07:02PM 38.6633 -122.2714 357° North 431 496 23,100 1,440 Climbing Oakland Center
07:03PM 38.8011 -122.2828 356° North 455 524 24,400 1,200 Climbing Oakland Center
07:04PM 38.9367 -122.2939 356° North 479 551 25,600 1,440 Climbing Oakland Center
07:05PM 39.0742 -122.3058 356° North 491 565 27,400 1,800 Climbing Oakland Center
07:06PM 39.2381 -122.3214 356° North 491 565 29,300 1,500 Climbing Oakland Center
07:07PM 39.3750 -122.3328 356° North 491 565 30,500 1,200 Climbing Oakland Center
07:08PM 39.5153 -122.3406 358° North 498 573 31,800 1,080 Climbing Oakland Center
07:09PM 39.6533 -122.3517 356° North 498 573 32,800 780 Climbing Oakland Center
07:10PM 39.7953 -122.3644 356° North 506 582 33,500 1,020 Climbing Oakland Center
07:11PM 39.9386 -122.3769 356° North 512 589 34,900 1,200 Climbing Oakland Center
07:12PM 40.0900 -122.3911 356° North 506 582 36,000 480 Climbing Oakland Center
07:13PM 40.2189 -122.4053 355° North 491 565 36,000  Level Oakland Center
07:14PM 40.3758 -122.4139 358° North 520 598 36,000  Level Oakland Center
07:15PM 40.5336 -122.4281 356° North 508 585 36,000  Level Oakland Center
07:16PM 40.6578 -122.4372 357° North 510 587 36,000  Level Oakland Center
07:17PM 40.8286 -122.4503 357° North 512 589 36,000  Level Oakland Center
07:18PM 40.9706 -122.4625 356° North 512 589 36,000  Level Oakland Center
07:19PM 41.1156 -122.4775 356° North 521 600 36,000 -660 Level Oakland Center
07:20PM 41.2608 -122.4906 356° North 524 603 34,700 -1,020 Descending Oakland Center
07:21PM 41.3914 -122.4978 358° North 528 608 34,000 -360 Descending Oakland Center
07:22PM 41.5708 -122.5028 359° North 536 617 34,000  Level Oakland Center
07:23PM 41.7222 -122.5133 357° North 543 625 34,000  Level Oakland Center
07:24PM 41.8725 -122.5211 358° North 539 620 34,000  Level Oakland Center
07:25PM 42.0242 -122.5269 358° North 540 621 34,000  Level Oakland Center
07:27PM 42.1764 -122.5342 358° North 541 623 34,000  Level Oakland Center
07:28PM 42.3897 -122.5422 358° North 541 623 34,000 -420 Level Seattle Center
07:29PM 42.5406 -122.5486 358° North 538 619 33,100 -1,020 Descending Seattle Center
07:30PM 42.6897 -122.5561 358° North 534 615 32,000 -600 Descending Seattle Center
07:31PM 42.8372 -122.5636 358° North 542 624 32,000  Level Seattle Center
07:32PM 42.9889 -122.5706 358° North 543 625 32,000  Level Seattle Center
07:33PM 43.1378 -122.5775 358° North 539 620 32,000  Level Seattle Center
07:34PM 43.2889 -122.5842 358° North 542 624 32,000  Level Seattle Center
07:35PM 43.4419 -122.5936 357° North 550 633 32,000  Level Seattle Center
07:36PM 43.6231 -122.6017 358° North 546 628 32,000  Level Seattle Center
07:37PM 43.7769 -122.6100 358° North 551 634 32,000  Level Seattle Center
07:38PM 43.9303 -122.6158 358° North 555 639 32,000 -1,260 Level Seattle Center
07:39PM 44.0814 -122.6242 358° North 550 633 29,500 -2,640 Descending Seattle Center
07:40PM 44.2283 -122.6317 358° North 539 620 26,700 -2,520 Descending Seattle Center
07:41PM 44.3558 -122.6411 357° North 513 590 24,400 -2,700 Descending Seattle Center
07:42PM 44.5169 -122.6483 358° North 489 563 21,300 -2,760 Descending Seattle Center
07:43PM 44.6453 -122.6544 358° North 469 540 18,800 -2,580 Descending Seattle Center
07:44PM 44.7464 -122.6597 358° North 444 511 16,700 -2,700 Descending Seattle Center
07:44PM 44.8081 -122.6653 356° North 434 499 15,400 -2,520 Descending Seattle Center
07:45PM 44.8861 -122.6686 358° North 427 491 13,600 -1,980 Descending Seattle Center
07:46PM 44.9975 -122.6700 359° North 407 468 12,000 -1,260 Descending Seattle Center
07:47PM 45.0983 -122.6586 North 372 428 11,100 -1,140 Descending Seattle Center
07:48PM 45.1917 -122.6492 North 346 398 9,700 -1,380 Descending Seattle Center
07:49PM 45.2753 -122.6225 13° North 319 367 8,300 -1,440 Descending Seattle Center
07:50PM 45.3367 -122.5392 44° Northeast 306 352 6,800 -1,380 Descending Seattle Center
07:51PM 45.4033 -122.4756 34° Northeast 293 337 5,500 -1,680 Descending Seattle Center
07:52PM 45.4842 -122.4161 27° Northeast 276 318 3,400 -1,680 Descending Seattle Center
07:53PM 45.5306 -122.4500 333° Northwest 232 267 2,100 -1,080 Descending Seattle Center
07:54PM 45.5506 -122.5125 295° West 192 221 1,300 -780 Descending Seattle Center
07:55PM 45.5728 -122.5644 301° West 170 196 600 -720 Descending Seattle Center